createdAt,value
2022-10-22T00:00:00.586Z,12.60
2022-10-22T00:02:28.052Z,12.60
2022-10-22T00:04:57.065Z,12.60
2022-10-22T00:07:24.424Z,12.60
2022-10-22T00:09:51.443Z,12.60
2022-10-22T00:12:23.101Z,12.60
2022-10-22T00:14:50.135Z,12.60
2022-10-22T00:17:17.494Z,12.50
2022-10-22T00:19:44.430Z,12.50
2022-10-22T00:22:12.447Z,12.50
2022-10-22T00:24:39.931Z,12.40
2022-10-22T00:27:08.735Z,12.30
2022-10-22T00:29:35.665Z,12.30
2022-10-22T00:32:02.728Z,12.20
2022-10-22T00:34:29.549Z,12.20
2022-10-22T00:36:56.675Z,12.20
2022-10-22T00:39:25.124Z,12.30
2022-10-22T00:41:53.957Z,12.30
2022-10-22T00:44:58.712Z,12.30
2022-10-22T00:47:27.490Z,12.40
2022-10-22T00:49:56.083Z,12.30
2022-10-22T00:52:23.376Z,12.30
2022-10-22T00:54:51.680Z,12.30
2022-10-22T00:57:20.513Z,12.40
2022-10-22T00:59:48.761Z,12.40
2022-10-22T01:02:16.983Z,12.40
2022-10-22T01:04:44.729Z,12.40
2022-10-22T01:07:20.208Z,12.30
2022-10-22T01:09:49.798Z,12.30
2022-10-22T01:12:19.477Z,12.30
2022-10-22T01:15:05.279Z,12.30
2022-10-22T01:17:43.387Z,12.30
2022-10-22T01:20:23.468Z,12.30
2022-10-22T01:23:09.107Z,12.30
2022-10-22T01:25:42.524Z,12.20
2022-10-22T01:28:40.558Z,12.20
2022-10-22T01:31:09.944Z,12.30
2022-10-22T01:33:37.348Z,12.20
2022-10-22T01:36:04.973Z,12.30
2022-10-22T01:38:32.701Z,12.30
2022-10-22T01:41:01.972Z,12.20
2022-10-22T01:43:28.843Z,12.20
2022-10-22T01:46:00.340Z,12.20
2022-10-22T01:48:56.298Z,12.20
2022-10-22T01:51:51.010Z,12.30
2022-10-22T01:54:54.468Z,12.20
2022-10-22T01:57:41.506Z,12.20
2022-10-22T02:00:11.192Z,12.20
2022-10-22T02:03:02.185Z,12.20
2022-10-22T02:05:33.861Z,12.20
2022-10-22T02:08:09.354Z,12.20
2022-10-22T02:10:42.336Z,12.20
2022-10-22T02:13:15.944Z,12.20
2022-10-22T02:15:46.057Z,12.20
2022-10-22T02:18:14.818Z,12.20
2022-10-22T02:20:42.541Z,12.20
2022-10-22T02:23:10.399Z,12.20
2022-10-22T02:25:40.839Z,12.20
2022-10-22T02:28:28.044Z,12.20
2022-10-22T02:31:13.584Z,12.10
2022-10-22T02:33:46.609Z,12.10
2022-10-22T02:36:15.723Z,12.10
2022-10-22T02:38:43.458Z,12.10
2022-10-22T02:41:11.042Z,12.10
2022-10-22T02:43:43.020Z,12.10
2022-10-22T02:46:11.110Z,12.10
2022-10-22T02:48:38.159Z,12.20
2022-10-22T02:51:05.256Z,12.20
2022-10-22T02:53:32.308Z,12.20
2022-10-22T02:55:59.993Z,12.20
2022-10-22T02:58:26.933Z,12.10
2022-10-22T03:00:54.178Z,12.10
2022-10-22T03:03:21.159Z,12.10
2022-10-22T03:05:48.295Z,12.10
2022-10-22T03:08:15.281Z,12.10
2022-10-22T03:10:42.285Z,12.10
2022-10-22T03:13:09.305Z,12.10
2022-10-22T03:15:36.221Z,12.10
2022-10-22T03:18:03.275Z,12.00
2022-10-22T03:20:30.160Z,12.00
2022-10-22T03:22:57.887Z,12.00
2022-10-22T03:25:27.009Z,12.00
2022-10-22T03:27:55.439Z,12.00
2022-10-22T03:30:22.788Z,12.00
2022-10-22T03:32:49.710Z,12.00
2022-10-22T03:35:16.737Z,12.00
2022-10-22T03:37:43.839Z,12.10
2022-10-22T03:40:11.642Z,12.10
2022-10-22T03:42:39.154Z,12.10
2022-10-22T03:45:06.987Z,12.10
2022-10-22T03:47:34.657Z,12.00
2022-10-22T03:50:01.582Z,12.00
2022-10-22T03:52:28.679Z,12.00
2022-10-22T03:54:55.657Z,12.00
2022-10-22T03:57:22.831Z,12.10
2022-10-22T03:59:50.989Z,12.10
2022-10-22T04:02:17.922Z,12.10
2022-10-22T04:04:44.853Z,12.10
2022-10-22T04:07:11.829Z,12.10
2022-10-22T04:09:38.817Z,12.10
2022-10-22T04:12:07.927Z,12.10
2022-10-22T04:14:35.071Z,12.10
2022-10-22T04:17:02.281Z,12.10
2022-10-22T04:19:29.357Z,12.10
2022-10-22T04:21:59.182Z,12.10
2022-10-22T04:24:26.814Z,12.10
2022-10-22T04:26:54.823Z,12.00
2022-10-22T04:29:21.890Z,12.00
2022-10-22T04:31:49.037Z,12.00
2022-10-22T04:34:16.133Z,12.00
2022-10-22T04:36:43.137Z,12.00
2022-10-22T04:39:10.112Z,12.00
2022-10-22T04:41:39.196Z,12.00
2022-10-22T04:44:08.149Z,12.00
2022-10-22T04:46:37.924Z,12.00
2022-10-22T04:49:05.197Z,12.00
2022-10-22T04:51:32.507Z,12.00
2022-10-22T04:53:59.627Z,12.00
2022-10-22T04:56:29.778Z,12.00
2022-10-22T04:59:02.190Z,12.00
2022-10-22T05:01:32.040Z,12.00
2022-10-22T05:04:01.593Z,12.10
2022-10-22T05:06:30.339Z,12.00
2022-10-22T05:09:01.826Z,12.10
2022-10-22T05:11:41.717Z,12.00
2022-10-22T05:14:10.161Z,12.10
2022-10-22T05:16:38.329Z,12.10
2022-10-22T05:19:06.682Z,12.10
2022-10-22T05:21:34.172Z,12.10
2022-10-22T05:24:01.122Z,12.10
2022-10-22T05:26:29.016Z,12.20
2022-10-22T05:28:57.372Z,12.20
2022-10-22T05:31:24.554Z,12.20
2022-10-22T05:33:51.550Z,12.20
2022-10-22T05:36:21.704Z,12.20
2022-10-22T05:38:49.954Z,12.20
2022-10-22T05:41:25.168Z,12.20
2022-10-22T05:43:55.337Z,12.20
2022-10-22T05:46:24.027Z,12.20
2022-10-22T05:48:52.444Z,12.30
2022-10-22T05:51:20.291Z,12.30
2022-10-22T05:53:50.981Z,12.30
2022-10-22T05:56:17.932Z,12.30
2022-10-22T05:58:45.717Z,12.30
2022-10-22T06:01:18.846Z,12.40
2022-10-22T06:03:47.201Z,12.40
2022-10-22T06:06:20.342Z,12.40
2022-10-22T06:08:52.406Z,12.40
2022-10-22T06:11:22.057Z,12.40
2022-10-22T06:13:50.657Z,12.40
2022-10-22T06:16:18.031Z,12.40
2022-10-22T06:18:45.024Z,12.40
2022-10-22T06:21:14.967Z,12.50
2022-10-22T06:23:42.811Z,12.50
2022-10-22T06:26:11.049Z,12.50
2022-10-22T06:28:38.389Z,12.50
2022-10-22T06:31:05.934Z,12.50
2022-10-22T06:33:34.416Z,12.50
2022-10-22T06:36:09.474Z,12.50
2022-10-22T06:38:36.706Z,12.60
2022-10-22T06:41:06.141Z,12.60
2022-10-22T06:43:33.343Z,12.60
2022-10-22T06:46:02.218Z,12.70
2022-10-22T06:48:29.905Z,12.60
2022-10-22T06:51:00.856Z,12.60
2022-10-22T06:53:27.762Z,12.60
2022-10-22T06:55:54.932Z,12.60
2022-10-22T06:58:22.100Z,12.70
2022-10-22T07:00:49.093Z,12.70
2022-10-22T07:03:16.376Z,12.80
2022-10-22T07:05:43.405Z,12.80
2022-10-22T07:08:10.386Z,12.80
2022-10-22T07:10:37.306Z,12.90
2022-10-22T07:13:04.161Z,13.70
2022-10-22T07:15:31.168Z,13.00
2022-10-22T07:17:58.372Z,13.00
2022-10-22T07:20:25.573Z,13.10
2022-10-22T07:22:52.488Z,13.10
2022-10-22T07:25:19.531Z,13.10
2022-10-22T07:27:46.561Z,13.10
2022-10-22T07:30:13.710Z,13.10
2022-10-22T07:32:40.630Z,13.10
2022-10-22T07:35:08.041Z,13.10
2022-10-22T07:37:35.235Z,13.20
2022-10-22T07:40:03.925Z,13.20
2022-10-22T07:42:31.295Z,13.30
2022-10-22T07:44:58.126Z,13.30
2022-10-22T07:47:25.091Z,13.30
2022-10-22T07:49:52.007Z,13.30
2022-10-22T07:52:19.219Z,13.40
2022-10-22T07:54:46.097Z,13.60
2022-10-22T07:57:13.073Z,13.70
2022-10-22T07:59:40.042Z,13.90
2022-10-22T08:02:07.590Z,14.10
2022-10-22T08:04:34.575Z,14.40
2022-10-22T08:07:02.015Z,14.80
2022-10-22T08:09:29.045Z,15.30
2022-10-22T08:11:55.959Z,15.90
2022-10-22T08:14:23.185Z,16.60
2022-10-22T08:16:50.193Z,17.20
2022-10-22T08:19:21.289Z,17.40
2022-10-22T08:21:48.876Z,17.70
2022-10-22T08:24:16.146Z,17.50
2022-10-22T08:26:43.152Z,17.30
2022-10-22T08:29:10.090Z,16.90
2022-10-22T08:31:37.256Z,16.60
2022-10-22T08:34:05.666Z,16.40
2022-10-22T08:36:32.697Z,16.20
2022-10-22T08:38:59.649Z,16.10
2022-10-22T08:41:26.868Z,16.00
2022-10-22T08:44:18.458Z,15.90
2022-10-22T08:47:13.059Z,15.90
2022-10-22T08:49:43.066Z,15.80
2022-10-22T08:52:15.630Z,15.70
2022-10-22T08:54:58.358Z,15.60
2022-10-22T08:57:52.586Z,15.60
2022-10-22T09:00:46.451Z,15.50
2022-10-22T09:03:19.603Z,15.50
2022-10-22T09:05:49.579Z,15.50
2022-10-22T09:08:19.490Z,15.50
2022-10-22T09:11:02.111Z,15.50
2022-10-22T09:13:29.838Z,15.50
2022-10-22T09:16:01.716Z,15.50
2022-10-22T09:18:53.417Z,15.50
2022-10-22T09:21:42.533Z,15.60
2022-10-22T09:24:23.605Z,15.70
2022-10-22T09:26:51.331Z,15.70
2022-10-22T09:29:23.241Z,15.80
2022-10-22T09:31:50.313Z,15.90
2022-10-22T09:34:21.343Z,15.90
2022-10-22T09:36:48.455Z,15.90
2022-10-22T09:39:27.927Z,16.00
2022-10-22T09:41:54.884Z,16.00
2022-10-22T09:44:22.353Z,16.00
2022-10-22T09:46:49.632Z,16.10
2022-10-22T09:49:22.535Z,16.10
2022-10-22T09:51:52.045Z,16.10
2022-10-22T09:54:25.048Z,16.20
2022-10-22T09:57:12.439Z,16.20
2022-10-22T09:59:42.401Z,16.30
2022-10-22T10:02:19.568Z,16.30
2022-10-22T10:04:51.184Z,16.40
2022-10-22T10:07:27.398Z,16.60
2022-10-22T10:09:54.958Z,16.60
2022-10-22T10:12:32.065Z,16.60
2022-10-22T10:15:20.174Z,16.70
2022-10-22T10:17:55.328Z,16.70
2022-10-22T10:20:48.863Z,16.70
2022-10-22T10:23:49.628Z,16.70
2022-10-22T10:26:27.371Z,16.70
2022-10-22T10:28:54.452Z,16.70
2022-10-22T10:32:00.640Z,16.80
2022-10-22T10:35:00.858Z,16.80
2022-10-22T10:37:43.820Z,16.90
2022-10-22T10:40:31.782Z,16.90
2022-10-22T10:43:24.997Z,16.90
2022-10-22T10:46:14.040Z,16.80
2022-10-22T10:49:00.202Z,16.70
2022-10-22T10:51:53.571Z,16.50
2022-10-22T10:54:41.095Z,16.50
2022-10-22T10:57:34.325Z,16.40
2022-10-22T11:00:16.108Z,16.40
2022-10-22T11:03:04.190Z,16.30
2022-10-22T11:05:42.271Z,16.30
2022-10-22T11:08:19.132Z,16.20
2022-10-22T11:10:50.449Z,16.20
2022-10-22T11:13:22.441Z,16.30
2022-10-22T11:16:11.199Z,16.30
2022-10-22T11:18:47.231Z,16.40
2022-10-22T11:21:21.887Z,16.60
2022-10-22T11:23:54.965Z,16.70
2022-10-22T11:26:27.736Z,16.80
2022-10-22T11:28:59.058Z,16.80
2022-10-22T11:31:27.386Z,16.80
2022-10-22T11:34:42.363Z,16.90
2022-10-22T11:37:11.910Z,17.00
2022-10-22T11:39:48.662Z,17.00
2022-10-22T11:42:23.314Z,17.10
2022-10-22T11:45:01.039Z,17.20
2022-10-22T11:47:33.858Z,17.20
2022-10-22T11:50:26.187Z,17.40
2022-10-22T11:53:13.274Z,17.40
2022-10-22T11:55:45.832Z,17.40
2022-10-22T11:58:30.679Z,17.50
2022-10-22T12:01:21.378Z,17.60
2022-10-22T12:03:49.957Z,17.50
2022-10-22T12:06:21.608Z,17.40
2022-10-22T12:08:56.884Z,17.40
2022-10-22T12:11:35.186Z,17.30
2022-10-22T12:14:18.912Z,17.30
2022-10-22T12:16:57.727Z,17.20
2022-10-22T12:19:27.942Z,17.20
2022-10-22T12:21:59.479Z,17.10
2022-10-22T12:24:31.303Z,17.10
2022-10-22T12:26:58.235Z,16.90
2022-10-22T12:29:26.685Z,16.80
2022-10-22T12:31:55.058Z,16.70
2022-10-22T12:34:24.211Z,16.60
2022-10-22T12:36:53.382Z,16.50
2022-10-22T12:39:25.486Z,16.50
2022-10-22T12:41:53.744Z,16.40
2022-10-22T12:44:20.604Z,16.40
2022-10-22T12:46:52.975Z,16.40
2022-10-22T12:49:43.674Z,16.40
2022-10-22T12:52:17.055Z,16.50
2022-10-22T12:54:47.197Z,16.60
2022-10-22T12:57:17.198Z,16.70
2022-10-22T12:59:49.799Z,16.80
2022-10-22T13:02:26.149Z,16.80
2022-10-22T13:05:18.300Z,17.00
2022-10-22T13:07:50.825Z,17.10
2022-10-22T13:10:40.583Z,17.20
2022-10-22T13:13:27.634Z,17.20
2022-10-22T13:15:56.920Z,17.30
2022-10-22T13:18:25.250Z,17.40
2022-10-22T13:20:56.822Z,17.50
2022-10-22T13:23:26.679Z,17.70
2022-10-22T13:26:16.620Z,17.80
2022-10-22T13:28:54.257Z,17.90
2022-10-22T13:31:27.623Z,18.00
2022-10-22T13:33:58.427Z,18.10
2022-10-22T13:36:25.488Z,18.10
2022-10-22T13:38:52.375Z,18.10
2022-10-22T13:41:22.461Z,18.10
2022-10-22T13:43:49.965Z,18.20
2022-10-22T13:46:17.783Z,18.20
2022-10-22T13:48:46.094Z,18.30
2022-10-22T13:51:18.594Z,18.30
2022-10-22T13:53:47.770Z,18.30
2022-10-22T13:56:17.599Z,18.30
2022-10-22T13:58:45.796Z,18.30
2022-10-22T14:01:23.104Z,18.40
2022-10-22T14:03:52.672Z,18.30
2022-10-22T14:06:20.493Z,18.30
2022-10-22T14:08:51.712Z,18.20
2022-10-22T14:11:18.838Z,18.30
2022-10-22T14:13:45.811Z,18.30
2022-10-22T14:16:20.095Z,18.30
2022-10-22T14:18:47.801Z,18.40
2022-10-22T14:21:16.771Z,18.40
2022-10-22T14:23:47.175Z,18.40
2022-10-22T14:26:28.255Z,18.40
2022-10-22T14:29:11.655Z,18.50
2022-10-22T14:31:44.654Z,18.40
2022-10-22T14:34:14.207Z,18.30
2022-10-22T14:36:43.836Z,18.30
2022-10-22T14:39:11.938Z,18.30
2022-10-22T14:41:39.172Z,18.30
2022-10-22T14:44:06.256Z,18.30
2022-10-22T14:46:33.876Z,18.20
2022-10-22T14:49:00.721Z,18.20
2022-10-22T14:51:27.805Z,18.20
2022-10-22T14:53:54.929Z,18.20
2022-10-22T14:56:23.339Z,18.20
2022-10-22T14:58:50.949Z,18.10
2022-10-22T15:01:18.233Z,18.10
2022-10-22T15:03:45.244Z,18.00
2022-10-22T15:06:12.470Z,18.00
2022-10-22T15:08:39.652Z,17.90
2022-10-22T15:11:10.474Z,17.90
2022-10-22T15:13:38.167Z,17.80
2022-10-22T15:16:10.517Z,17.80
2022-10-22T15:18:38.233Z,17.70
2022-10-22T15:21:08.660Z,17.70
2022-10-22T15:23:36.708Z,17.60
2022-10-22T15:26:03.620Z,17.50
2022-10-22T15:28:30.709Z,17.50
2022-10-22T15:31:00.238Z,17.50
2022-10-22T15:33:28.556Z,17.30
2022-10-22T15:35:56.736Z,17.20
2022-10-22T15:41:05.794Z,17.00
2022-10-22T15:43:34.367Z,17.00
2022-10-22T15:46:18.337Z,16.90
2022-10-22T15:48:46.086Z,16.80
2022-10-22T15:51:18.429Z,16.80
2022-10-22T15:53:51.866Z,16.70
2022-10-22T15:56:19.085Z,16.60
2022-10-22T15:58:46.831Z,16.50
2022-10-22T16:01:14.892Z,16.40
2022-10-22T16:03:41.978Z,16.30
2022-10-22T16:06:09.902Z,16.20
2022-10-22T16:08:39.029Z,16.10
2022-10-22T16:11:06.185Z,16.10
2022-10-22T16:13:33.326Z,16.00
2022-10-22T16:16:06.235Z,16.00
2022-10-22T16:18:33.176Z,15.90
2022-10-22T16:21:00.286Z,15.80
2022-10-22T16:23:27.478Z,15.70
2022-10-22T16:25:54.646Z,15.50
2022-10-22T16:28:21.581Z,15.40
2022-10-22T16:30:48.740Z,15.30
2022-10-22T16:33:15.815Z,15.30
2022-10-22T16:35:42.992Z,15.30
2022-10-22T16:38:10.714Z,15.20
2022-10-22T16:40:37.826Z,15.10
2022-10-22T16:43:05.171Z,15.00
2022-10-22T16:45:32.277Z,14.90
2022-10-22T16:47:59.300Z,14.90
2022-10-22T16:50:26.410Z,14.70
2022-10-22T16:52:53.508Z,14.80
2022-10-22T16:55:20.698Z,14.80
2022-10-22T16:57:52.367Z,14.80
2022-10-22T17:00:20.342Z,14.70
2022-10-22T17:02:53.082Z,14.70
2022-10-22T17:05:21.089Z,14.70
2022-10-22T17:07:48.468Z,14.60
2022-10-22T17:10:16.433Z,14.70
2022-10-22T17:12:43.712Z,14.60
2022-10-22T17:15:10.941Z,14.60
2022-10-22T17:17:39.050Z,14.50
2022-10-22T17:20:06.985Z,14.50
2022-10-22T17:22:34.204Z,14.50
2022-10-22T17:25:16.654Z,14.40
2022-10-22T17:27:44.612Z,14.40
2022-10-22T17:30:23.348Z,14.40
2022-10-22T17:32:54.331Z,14.40
2022-10-22T17:35:21.281Z,14.30
2022-10-22T17:37:48.340Z,14.30
2022-10-22T17:40:16.183Z,14.20
2022-10-22T17:42:45.454Z,14.20
2022-10-22T17:45:12.518Z,14.10
2022-10-22T17:47:39.785Z,14.20
2022-10-22T17:50:07.255Z,14.20
2022-10-22T17:52:35.228Z,14.10
2022-10-22T17:55:02.528Z,14.10
2022-10-22T17:57:29.670Z,14.00
2022-10-22T17:59:56.750Z,13.90
2022-10-22T18:02:23.859Z,13.80
2022-10-22T18:04:52.245Z,13.90
2022-10-22T18:07:20.789Z,13.80
2022-10-22T18:09:48.083Z,13.70
2022-10-22T18:12:15.134Z,13.60
2022-10-22T18:14:42.164Z,13.50
2022-10-22T18:17:09.164Z,13.50
2022-10-22T18:19:36.228Z,13.40
2022-10-22T18:22:03.420Z,13.40
2022-10-22T18:24:30.308Z,13.40
2022-10-22T18:26:57.178Z,13.40
2022-10-22T18:29:24.251Z,13.40
2022-10-22T18:31:52.503Z,13.40
2022-10-22T18:34:21.791Z,13.30
2022-10-22T18:36:50.921Z,13.30
2022-10-22T18:39:17.976Z,13.30
2022-10-22T18:41:44.978Z,13.30
2022-10-22T18:44:13.828Z,13.30
2022-10-22T18:46:41.085Z,13.30
2022-10-22T18:49:08.622Z,13.30
2022-10-22T18:51:36.420Z,13.30
2022-10-22T18:54:18.230Z,13.30
2022-10-22T18:56:49.499Z,13.30
2022-10-22T18:59:24.060Z,13.30
2022-10-22T19:01:55.711Z,13.30
2022-10-22T19:04:22.764Z,13.30
2022-10-22T19:06:49.959Z,13.20
2022-10-22T19:09:17.258Z,13.20
2022-10-22T19:11:45.552Z,13.10
2022-10-22T19:14:14.817Z,13.10
2022-10-22T19:16:42.045Z,13.10
2022-10-22T19:19:09.090Z,13.00
2022-10-22T19:21:37.389Z,13.00
2022-10-22T19:24:04.669Z,13.00
2022-10-22T19:26:32.573Z,13.00
2022-10-22T19:29:00.854Z,13.00
2022-10-22T19:31:30.142Z,13.00
2022-10-22T19:33:58.467Z,12.90
2022-10-22T19:36:27.662Z,12.90
2022-10-22T19:38:55.343Z,12.90
2022-10-22T19:41:24.038Z,12.90
2022-10-22T19:43:53.649Z,12.90
2022-10-22T19:46:22.106Z,12.90
2022-10-22T19:48:51.285Z,12.90
2022-10-22T19:51:21.819Z,12.90
2022-10-22T19:53:49.609Z,12.90
2022-10-22T19:56:19.827Z,12.80
2022-10-22T19:58:46.830Z,12.80
2022-10-22T20:01:15.877Z,12.80
2022-10-22T20:03:43.333Z,12.70
2022-10-22T20:06:11.921Z,12.60
2022-10-22T20:08:39.318Z,12.70
2022-10-22T20:11:10.734Z,12.60
2022-10-22T20:16:05.687Z,12.60
2022-10-22T20:18:34.147Z,12.50
2022-10-22T20:21:09.102Z,12.60
2022-10-22T20:23:36.357Z,12.50
2022-10-22T20:26:05.149Z,12.50
2022-10-22T20:28:32.551Z,12.50
2022-10-22T20:30:59.653Z,12.40
2022-10-22T20:33:26.555Z,12.40
2022-10-22T20:36:00.878Z,12.30
2022-10-22T20:38:28.261Z,12.30
2022-10-22T20:41:00.506Z,12.30
2022-10-22T20:43:27.392Z,11.20
2022-10-22T20:45:54.668Z,12.20
2022-10-22T20:48:24.462Z,12.20
2022-10-22T20:50:51.447Z,12.20
2022-10-22T20:53:18.391Z,12.10
2022-10-22T20:55:47.373Z,12.10
2022-10-22T20:58:14.416Z,12.10
2022-10-22T21:00:41.416Z,12.10
2022-10-22T21:03:08.297Z,12.00
2022-10-22T21:05:35.317Z,12.00
2022-10-22T21:08:02.571Z,12.00
2022-10-22T21:10:32.475Z,12.00
2022-10-22T21:13:00.398Z,12.00
2022-10-22T21:15:27.900Z,12.10
2022-10-22T21:17:54.898Z,12.10
2022-10-22T21:20:24.601Z,12.10
2022-10-22T21:22:52.088Z,12.10
2022-10-22T21:25:19.055Z,12.00
2022-10-22T21:27:46.050Z,12.00
2022-10-22T21:30:13.317Z,12.00
2022-10-22T21:32:40.565Z,12.00
2022-10-22T21:35:08.174Z,12.00
2022-10-22T21:37:35.268Z,12.00
2022-10-22T21:40:03.838Z,12.00
2022-10-22T21:42:31.113Z,12.00
2022-10-22T21:44:58.256Z,12.00
2022-10-22T21:47:25.259Z,12.00
2022-10-22T21:49:52.236Z,12.00
2022-10-22T21:52:19.169Z,12.00
2022-10-22T21:54:46.039Z,12.00
2022-10-22T21:57:13.027Z,12.00
2022-10-22T21:59:39.987Z,11.90
2022-10-22T22:02:07.120Z,11.90
2022-10-22T22:04:34.196Z,11.90
2022-10-22T22:07:01.112Z,11.90
2022-10-22T22:09:28.042Z,11.90
2022-10-22T22:11:54.929Z,11.80
2022-10-22T22:14:21.990Z,11.70
2022-10-22T22:16:49.228Z,11.70
2022-10-22T22:19:16.173Z,11.60
2022-10-22T22:21:44.188Z,11.50
2022-10-22T22:24:12.772Z,11.50
2022-10-22T22:26:40.452Z,11.40
2022-10-22T22:29:07.391Z,11.40
2022-10-22T22:31:35.652Z,11.40
2022-10-22T22:34:09.933Z,11.40
2022-10-22T22:36:39.302Z,11.40
2022-10-22T22:39:07.975Z,11.40
2022-10-22T22:41:35.059Z,11.40
2022-10-22T22:44:02.121Z,11.40
2022-10-22T22:46:29.130Z,11.40
2022-10-22T22:48:56.077Z,11.30
2022-10-22T22:51:23.417Z,11.40
2022-10-22T22:53:51.012Z,11.30
2022-10-22T22:56:24.098Z,11.30
2022-10-22T22:58:51.278Z,11.30
2022-10-22T23:01:25.364Z,11.30
2022-10-22T23:04:04.901Z,11.30
2022-10-22T23:06:37.234Z,11.30
2022-10-22T23:09:05.964Z,11.30
2022-10-22T23:11:33.460Z,11.30
2022-10-22T23:14:02.448Z,11.20
2022-10-22T23:16:32.408Z,11.20
2022-10-22T23:19:00.742Z,11.20
2022-10-22T23:21:33.310Z,11.10
2022-10-22T23:24:02.986Z,11.00
2022-10-22T23:26:32.669Z,11.00
2022-10-22T23:29:14.927Z,11.00
2022-10-22T23:31:42.640Z,11.00
2022-10-22T23:34:11.811Z,11.00
2022-10-22T23:36:39.533Z,11.00
2022-10-22T23:39:12.843Z,10.90
2022-10-22T23:41:39.903Z,10.80
2022-10-22T23:44:07.860Z,10.90
2022-10-22T23:46:35.571Z,10.80
2022-10-22T23:49:02.415Z,11.00
2022-10-22T23:51:29.431Z,11.00
2022-10-22T23:53:58.928Z,11.00
2022-10-22T23:56:26.899Z,11.00
2022-10-22T23:58:54.809Z,11.00
